createdAt,value
2022-08-05T00:04:55.275Z,9.18
2022-08-05T00:09:57.683Z,8.80
2022-08-05T00:15:53.923Z,11.05
2022-08-05T00:20:22.364Z,7.47
2022-08-05T00:25:45.355Z,10.85
2022-08-05T00:30:52.114Z,7.47
2022-08-05T00:36:15.863Z,7.20
2022-08-05T00:41:28.737Z,10.55
2022-08-05T00:46:54.176Z,8.85
2022-08-05T00:52:03.680Z,9.07
2022-08-05T00:57:05.520Z,7.65
2022-08-05T01:02:07.385Z,10.98
2022-08-05T01:07:21.919Z,9.73
2022-08-05T01:12:34.367Z,11.45
2022-08-05T01:17:53.848Z,7.43
2022-08-05T01:23:14.551Z,9.82
2022-08-05T01:28:43.881Z,7.85
2022-08-05T01:33:53.512Z,9.77
2022-08-05T01:38:56.730Z,8.73
2022-08-05T01:44:06.783Z,8.90
2022-08-05T01:49:22.798Z,13.02
2022-08-05T01:54:28.879Z,9.15
2022-08-05T01:59:32.593Z,7.50
2022-08-05T02:04:40.601Z,10.60
2022-08-05T02:09:42.453Z,10.68
2022-08-05T02:14:53.298Z,10.07
2022-08-05T02:20:01.715Z,14.27
2022-08-05T02:25:12.664Z,9.90
2022-08-05T02:30:15.920Z,11.82
2022-08-05T02:35:22.126Z,12.95
2022-08-05T02:40:31.425Z,11.63
2022-08-05T02:45:52.865Z,10.45
2022-08-05T02:50:57.449Z,8.98
2022-08-05T02:56:02.222Z,8.90
2022-08-05T03:01:05.281Z,9.60
2022-08-05T03:06:53.705Z,7.60
2022-08-05T03:11:57.658Z,12.80
2022-08-05T03:16:54.049Z,12.70
2022-08-05T03:21:55.838Z,11.00
2022-08-05T03:26:59.944Z,11.50
2022-08-05T03:32:02.876Z,12.60
2022-08-05T03:37:05.805Z,12.48
2022-08-05T03:42:07.544Z,11.75
2022-08-05T03:47:09.391Z,12.30
2022-08-05T03:52:49.266Z,14.32
2022-08-05T03:57:46.050Z,13.77
2022-08-05T04:02:58.696Z,15.95
2022-08-05T04:08:03.582Z,14.57
2022-08-05T04:13:08.089Z,19.00
2022-08-05T04:18:12.732Z,19.08
2022-08-05T04:24:04.900Z,15.95
2022-08-05T04:28:51.283Z,16.27
2022-08-05T04:34:18.549Z,19.23
2022-08-05T04:39:15.672Z,17.35
2022-08-05T04:44:21.395Z,19.45
2022-08-05T04:49:39.028Z,21.43
2022-08-05T04:54:53.406Z,19.15
2022-08-05T04:59:59.026Z,21.30
2022-08-05T05:05:02.258Z,19.02
2022-08-05T05:10:06.619Z,23.35
2022-08-05T05:15:10.788Z,18.73
2022-08-05T05:20:14.128Z,19.17
2022-08-05T05:25:17.435Z,19.80
2022-08-05T05:30:29.173Z,19.52
2022-08-05T05:35:39.771Z,19.67
2022-08-05T05:40:50.068Z,18.23
2022-08-05T05:45:53.393Z,17.05
2022-08-05T05:50:55.186Z,17.42
2022-08-05T05:56:01.004Z,18.15
2022-08-05T06:01:12.912Z,18.30
2022-08-05T06:06:17.004Z,22.40
2022-08-05T06:11:18.759Z,25.38
2022-08-05T06:16:28.358Z,19.85
2022-08-05T06:21:35.967Z,22.02
2022-08-05T06:26:51.021Z,26.73
2022-08-05T06:31:54.165Z,22.95
2022-08-05T06:36:57.844Z,24.38
2022-08-05T06:42:04.203Z,27.83
2022-08-05T06:47:06.064Z,32.90
2022-08-05T06:52:37.958Z,39.80
2022-08-05T06:57:58.098Z,35.10
2022-08-05T07:02:56.021Z,37.92
2022-08-05T07:07:57.789Z,38.05
2022-08-05T07:13:57.184Z,37.05
2022-08-05T07:18:47.715Z,33.53
2022-08-05T07:23:49.973Z,35.47
2022-08-05T07:28:54.072Z,31.27
2022-08-05T07:33:56.037Z,29.60
2022-08-05T07:39:07.097Z,39.75
2022-08-05T07:44:26.630Z,37.80
2022-08-05T07:49:30.649Z,34.63
2022-08-05T07:54:33.865Z,36.20
2022-08-05T07:59:43.102Z,39.63
2022-08-05T08:04:46.767Z,41.42
2022-08-05T08:09:49.899Z,43.50
2022-08-05T08:14:55.808Z,39.47
2022-08-05T08:20:43.382Z,31.85
2022-08-05T08:25:27.021Z,34.30
2022-08-05T08:30:47.850Z,36.75
2022-08-05T08:35:53.051Z,34.67
2022-08-05T08:41:16.060Z,29.25
2022-08-05T08:46:21.558Z,30.90
2022-08-05T08:52:04.150Z,35.45
2022-08-05T08:56:53.757Z,32.65
2022-08-05T09:02:01.173Z,34.83
2022-08-05T09:07:04.150Z,38.30
2022-08-05T09:12:30.124Z,37.38
2022-08-05T09:17:43.073Z,36.40
2022-08-05T09:23:21.769Z,33.80
2022-08-05T09:28:31.697Z,38.15
2022-08-05T09:33:52.385Z,38.58
2022-08-05T09:39:00.405Z,33.78
2022-08-05T09:44:04.449Z,38.85
2022-08-05T09:49:54.822Z,41.00
2022-08-05T09:55:56.370Z,36.53
2022-08-05T10:00:29.742Z,38.38
2022-08-05T10:05:33.481Z,40.70
2022-08-05T10:10:48.313Z,41.33
2022-08-05T10:15:52.663Z,38.47
2022-08-05T10:20:58.685Z,39.72
2022-08-05T10:26:14.321Z,46.28
2022-08-05T10:32:49.113Z,49.90
2022-08-05T10:36:41.429Z,64.78
2022-08-05T10:42:09.412Z,60.20
2022-08-05T10:47:25.913Z,54.25
2022-08-05T10:52:49.499Z,45.92
2022-08-05T10:58:08.945Z,45.72
2022-08-05T11:03:24.341Z,38.95
2022-08-05T11:08:37.176Z,33.78
2022-08-05T11:13:58.121Z,32.15
2022-08-05T11:20:10.691Z,21.88
2022-08-05T11:26:05.099Z,14.75
2022-08-05T11:30:58.503Z,12.32
2022-08-05T11:36:09.382Z,9.85
2022-08-05T11:41:57.989Z,9.90
2022-08-05T11:47:09.403Z,9.32
2022-08-05T11:52:12.160Z,9.75
2022-08-05T11:57:26.081Z,9.13
2022-08-05T12:02:36.034Z,10.90
2022-08-05T12:08:09.256Z,9.32
2022-08-05T12:13:16.719Z,7.00
2022-08-05T12:18:32.843Z,8.10
2022-08-05T12:28:44.797Z,10.32
2022-08-05T12:33:48.584Z,4.85
2022-08-05T12:38:50.928Z,11.82
2022-08-05T12:43:55.528Z,6.00
2022-08-05T12:49:19.031Z,4.47
2022-08-05T12:54:32.250Z,9.65
2022-08-05T13:00:09.058Z,9.45
2022-08-05T13:05:12.494Z,6.67
2022-08-05T13:10:19.739Z,6.75
2022-08-05T13:15:24.450Z,7.53
2022-08-05T13:20:40.388Z,10.18
2022-08-05T13:31:10.900Z,6.07
2022-08-05T13:36:18.748Z,6.03
2022-08-05T13:41:20.578Z,7.00
2022-08-05T13:46:50.855Z,7.55
2022-08-05T13:51:49.740Z,4.88
2022-08-05T13:56:55.730Z,5.70
2022-08-05T14:02:00.177Z,3.22
2022-08-05T14:07:25.037Z,4.38
2022-08-05T14:12:32.143Z,5.82
2022-08-05T14:17:34.654Z,5.57
2022-08-05T14:22:36.759Z,4.68
2022-08-05T14:27:38.586Z,3.72
2022-08-05T14:32:49.115Z,7.55
2022-08-05T14:37:55.374Z,8.05
2022-08-05T14:48:05.677Z,7.38
2022-08-05T14:53:10.526Z,5.90
2022-08-05T14:58:14.022Z,7.32
2022-08-05T15:03:15.903Z,5.25
2022-08-05T15:08:58.525Z,6.85
2022-08-05T15:13:46.116Z,6.25
2022-08-05T15:18:52.986Z,5.80
2022-08-05T15:23:54.811Z,10.32
2022-08-05T15:28:56.591Z,8.52
2022-08-05T15:34:18.523Z,6.63
2022-08-05T15:40:58.218Z,7.97
2022-08-05T15:44:43.690Z,5.88
2022-08-05T15:49:56.720Z,5.38
2022-08-05T15:55:00.732Z,8.55
2022-08-05T16:00:08.183Z,8.02
2022-08-05T16:05:11.229Z,6.13
2022-08-05T16:10:13.023Z,4.20
2022-08-05T16:15:18.791Z,3.60
2022-08-05T16:20:20.867Z,5.40
2022-08-05T16:25:22.632Z,2.97
2022-08-05T16:30:34.434Z,4.45
2022-08-05T16:35:42.264Z,4.00
2022-08-05T16:40:51.739Z,5.25
2022-08-05T16:46:06.859Z,4.88
2022-08-05T16:51:16.122Z,4.43
2022-08-05T16:56:20.102Z,3.75
2022-08-05T17:01:21.992Z,2.88
2022-08-05T17:06:25.981Z,3.85
2022-08-05T17:11:29.236Z,4.50
2022-08-05T17:16:38.296Z,3.22
2022-08-05T17:21:40.322Z,3.20
2022-08-05T17:26:42.042Z,4.80
2022-08-05T17:31:58.614Z,4.35
2022-08-05T17:37:00.830Z,3.35
2022-08-05T17:42:17.324Z,4.00
2022-08-05T17:52:33.890Z,3.30
2022-08-05T17:57:43.516Z,5.75
2022-08-05T18:02:51.536Z,3.75
2022-08-05T18:07:53.302Z,1.92
2022-08-05T18:12:58.538Z,2.20
2022-08-05T18:18:05.576Z,3.17
2022-08-05T18:23:12.575Z,2.30
2022-08-05T18:28:17.439Z,3.97
2022-08-05T18:33:22.550Z,2.83
2022-08-05T18:38:26.025Z,1.63
2022-08-05T18:43:31.700Z,2.45
2022-08-05T18:48:43.281Z,4.20
2022-08-05T18:53:50.174Z,4.03
2022-08-05T18:58:54.701Z,2.45
2022-08-05T19:04:02.534Z,2.60
2022-08-05T19:09:07.314Z,6.50
2022-08-05T19:14:52.388Z,4.78
2022-08-05T19:19:31.693Z,2.38
2022-08-05T19:24:34.475Z,5.25
2022-08-05T19:29:37.428Z,1.25
2022-08-05T19:34:40.674Z,1.83
2022-08-05T19:39:45.978Z,2.13
2022-08-05T19:44:53.778Z,5.93
2022-08-05T19:50:00.823Z,4.80
2022-08-05T19:55:07.106Z,2.75
2022-08-05T20:00:24.860Z,1.33
2022-08-05T20:05:26.695Z,2.72
2022-08-05T20:10:45.169Z,2.10
2022-08-05T20:15:56.806Z,1.70
2022-08-05T20:20:59.970Z,2.75
2022-08-05T20:26:02.906Z,3.55
2022-08-05T20:31:05.190Z,2.55
2022-08-05T20:36:07.184Z,2.75
2022-08-05T20:41:11.953Z,3.50
2022-08-05T20:46:25.667Z,4.10
2022-08-05T20:51:28.279Z,3.60
2022-08-05T20:56:40.166Z,3.80
2022-08-05T21:01:44.902Z,1.90
2022-08-05T21:06:46.773Z,2.97
2022-08-05T21:12:07.703Z,2.25
2022-08-05T21:17:12.320Z,2.67
2022-08-05T21:22:14.515Z,3.17
2022-08-05T21:27:16.633Z,3.15
2022-08-05T21:32:20.050Z,6.15
2022-08-05T21:37:22.068Z,3.10
2022-08-05T21:42:40.845Z,3.83
2022-08-05T21:47:56.594Z,2.72
2022-08-05T21:53:04.541Z,2.10
2022-08-05T21:58:11.705Z,3.38
2022-08-05T22:03:15.404Z,2.78
2022-08-05T22:08:22.291Z,2.47
2022-08-05T22:14:19.360Z,3.97
2022-08-05T22:18:49.199Z,4.47
2022-08-05T22:24:13.174Z,3.55
2022-08-05T22:29:32.916Z,3.58
2022-08-05T22:34:35.109Z,5.32
2022-08-05T22:39:38.252Z,2.45
2022-08-05T22:44:47.096Z,3.25
2022-08-05T22:50:17.774Z,5.80
2022-08-05T22:55:19.257Z,1.90
2022-08-05T23:00:23.957Z,3.65
2022-08-05T23:05:25.764Z,3.75
2022-08-05T23:10:29.758Z,5.60
2022-08-05T23:15:36.331Z,2.92
2022-08-05T23:20:38.398Z,1.42
2022-08-05T23:25:52.004Z,2.70
2022-08-05T23:30:56.515Z,4.00
2022-08-05T23:36:18.257Z,2.08
2022-08-05T23:41:20.972Z,4.85
2022-08-05T23:46:23.608Z,2.45
2022-08-05T23:51:25.288Z,3.13
2022-08-05T23:56:28.105Z,1.88
